createdAt,value
2019-02-07T00:00:23.875Z,1011.83
2019-02-07T00:01:23.855Z,1011.73
2019-02-07T00:02:23.851Z,1011.75
2019-02-07T00:03:23.830Z,1011.70
2019-02-07T00:04:24.037Z,1011.64
2019-02-07T00:05:23.845Z,1011.65
2019-02-07T00:06:23.826Z,1011.59
2019-02-07T00:07:23.918Z,1011.59
2019-02-07T00:08:23.842Z,1011.62
2019-02-07T00:09:23.815Z,1011.56
2019-02-07T00:10:23.743Z,1011.45
2019-02-07T00:11:23.776Z,1011.50
2019-02-07T00:12:23.751Z,1011.44
2019-02-07T00:13:23.700Z,1011.51
2019-02-07T00:14:23.700Z,1011.48
2019-02-07T00:15:23.683Z,1011.44
2019-02-07T00:16:23.689Z,1011.39
2019-02-07T00:17:23.693Z,1011.38
2019-02-07T00:18:23.708Z,1011.38
2019-02-07T00:19:23.677Z,1011.37
2019-02-07T00:20:23.630Z,1011.32
2019-02-07T00:21:23.737Z,1011.31
2019-02-07T00:22:23.879Z,1011.33
2019-02-07T00:23:23.615Z,1011.28
2019-02-07T00:24:23.607Z,1011.23
2019-02-07T00:25:23.598Z,1011.27
2019-02-07T00:26:23.634Z,1011.26
2019-02-07T00:27:23.659Z,1011.23
2019-02-07T00:28:23.593Z,1011.29
2019-02-07T00:29:23.533Z,1011.26
2019-02-07T00:30:23.527Z,1011.24
2019-02-07T00:31:23.526Z,1011.19
2019-02-07T00:32:23.501Z,1011.17
2019-02-07T00:33:23.563Z,1011.16
2019-02-07T00:34:23.470Z,1011.12
2019-02-07T00:35:23.494Z,1011.12
2019-02-07T00:36:23.568Z,1011.10
2019-02-07T00:37:23.520Z,1011.10
2019-02-07T00:38:23.510Z,1011.09
2019-02-07T00:39:23.434Z,1011.06
2019-02-07T00:40:23.436Z,1011.01
2019-02-07T00:41:23.414Z,1010.98
2019-02-07T00:42:23.412Z,1010.93
2019-02-07T00:43:23.415Z,1010.99
2019-02-07T00:44:23.410Z,1010.92
2019-02-07T00:45:23.350Z,1010.89
2019-02-07T00:46:23.364Z,1010.91
2019-02-07T00:47:23.364Z,1010.91
2019-02-07T00:48:23.331Z,1010.89
2019-02-07T00:49:23.533Z,1010.86
2019-02-07T00:50:23.336Z,1010.88
2019-02-07T00:51:23.337Z,1010.84
2019-02-07T00:52:23.277Z,1010.79
2019-02-07T00:53:23.288Z,1010.84
2019-02-07T00:54:23.334Z,1010.76
2019-02-07T00:55:23.297Z,1010.70
2019-02-07T00:56:23.233Z,1010.71
2019-02-07T00:57:23.229Z,1010.68
2019-02-07T00:58:23.219Z,1010.69
2019-02-07T00:59:23.238Z,1010.68
2019-02-07T01:00:23.208Z,1010.68
2019-02-07T01:01:23.181Z,1010.65
2019-02-07T01:02:23.195Z,1010.66
2019-02-07T01:05:35.315Z,1010.64
2019-02-07T01:06:35.333Z,1010.54
2019-02-07T01:07:35.277Z,1010.55
2019-02-07T01:08:35.296Z,1010.50
2019-02-07T01:09:35.162Z,1010.53
2019-02-07T01:10:35.139Z,1010.51
2019-02-07T01:11:35.120Z,1010.49
2019-02-07T01:12:35.103Z,1010.52
2019-02-07T01:13:35.094Z,1010.52
2019-02-07T01:14:35.114Z,1010.43
2019-02-07T01:15:35.066Z,1010.45
2019-02-07T01:16:35.102Z,1010.43
2019-02-07T01:17:35.055Z,1010.38
2019-02-07T01:18:35.089Z,1010.38
2019-02-07T01:19:35.057Z,1010.35
2019-02-07T01:20:35.019Z,1010.38
2019-02-07T01:21:35.015Z,1010.32
2019-02-07T01:22:35.007Z,1010.31
2019-02-07T01:23:34.999Z,1010.33
2019-02-07T01:24:35.004Z,1010.25
2019-02-07T01:25:34.977Z,1010.27
2019-02-07T01:26:34.959Z,1010.19
2019-02-07T01:27:35.035Z,1010.22
2019-02-07T01:28:34.946Z,1010.25
2019-02-07T01:29:34.954Z,1010.16
2019-02-07T01:30:34.914Z,1010.11
2019-02-07T01:31:34.900Z,1010.11
2019-02-07T01:32:34.934Z,1010.11
2019-02-07T01:33:34.887Z,1010.02
2019-02-07T01:34:34.901Z,1010.10
2019-02-07T01:35:34.871Z,1010.05
2019-02-07T01:36:34.869Z,1010.06
2019-02-07T01:37:34.844Z,1010.06
2019-02-07T01:38:34.849Z,1010.02
2019-02-07T01:39:34.842Z,1010.03
2019-02-07T01:40:34.840Z,1009.92
2019-02-07T01:41:34.812Z,1009.92
2019-02-07T01:42:34.808Z,1009.98
2019-02-07T01:43:34.842Z,1009.95
2019-02-07T01:44:34.810Z,1009.92
2019-02-07T01:45:34.780Z,1009.89
2019-02-07T01:46:34.766Z,1009.85
2019-02-07T01:47:34.741Z,1009.85
2019-02-07T01:48:34.752Z,1009.86
2019-02-07T01:49:34.743Z,1009.86
2019-02-07T01:50:34.716Z,1009.86
2019-02-07T01:51:34.706Z,1009.86
2019-02-07T01:52:34.696Z,1009.84
2019-02-07T01:53:34.677Z,1009.81
2019-02-07T01:54:34.685Z,1009.81
2019-02-07T01:55:34.656Z,1009.82
2019-02-07T01:56:34.643Z,1009.77
2019-02-07T01:57:34.703Z,1009.74
2019-02-07T01:58:34.692Z,1009.69
2019-02-07T01:59:34.656Z,1009.78
2019-02-07T02:00:34.623Z,1009.71
2019-02-07T02:01:34.593Z,1009.71
2019-02-07T02:02:34.588Z,1009.74
2019-02-07T02:03:34.589Z,1009.71
2019-02-07T02:04:34.595Z,1009.72
2019-02-07T02:05:34.581Z,1009.74
2019-02-07T02:06:34.562Z,1009.69
2019-02-07T02:07:34.538Z,1009.60
2019-02-07T02:08:34.535Z,1009.64
2019-02-07T02:09:34.572Z,1009.57
2019-02-07T02:10:34.500Z,1009.57
2019-02-07T02:11:34.493Z,1009.53
2019-02-07T02:12:34.536Z,1009.51
2019-02-07T02:13:34.496Z,1009.49
2019-02-07T02:14:34.478Z,1009.56
2019-02-07T02:15:34.460Z,1009.56
2019-02-07T02:16:34.444Z,1009.45
2019-02-07T02:17:34.431Z,1009.50
2019-02-07T02:18:34.431Z,1009.47
2019-02-07T02:19:34.465Z,1009.47
2019-02-07T02:20:34.403Z,1009.39
2019-02-07T02:21:34.386Z,1009.40
2019-02-07T02:22:34.370Z,1009.35
2019-02-07T02:23:34.380Z,1009.31
2019-02-07T02:24:34.376Z,1009.32
2019-02-07T02:25:34.397Z,1009.36
2019-02-07T02:26:34.338Z,1009.25
2019-02-07T02:27:34.320Z,1009.27
2019-02-07T02:28:34.379Z,1009.28
2019-02-07T02:29:34.329Z,1009.29
2019-02-07T02:30:34.321Z,1009.20
2019-02-07T02:31:34.282Z,1009.28
2019-02-07T02:32:34.285Z,1009.17
2019-02-07T02:33:34.264Z,1009.20
2019-02-07T02:34:34.309Z,1009.19
2019-02-07T02:35:34.249Z,1009.27
2019-02-07T02:36:34.245Z,1009.18
2019-02-07T02:37:34.221Z,1009.09
2019-02-07T02:38:34.223Z,1009.05
2019-02-07T02:39:34.221Z,1009.04
2019-02-07T02:40:34.260Z,1008.98
2019-02-07T02:41:34.190Z,1008.94
2019-02-07T02:42:34.166Z,1008.93
2019-02-07T02:43:34.157Z,1008.90
2019-02-07T02:44:34.182Z,1008.92
2019-02-07T02:45:37.633Z,1008.93
2019-02-07T02:46:34.126Z,1008.88
2019-02-07T02:47:34.161Z,1008.91
2019-02-07T02:48:34.132Z,1008.94
2019-02-07T02:49:34.121Z,1008.91
2019-02-07T02:50:34.090Z,1008.85
2019-02-07T02:51:34.074Z,1008.83
2019-02-07T02:52:34.061Z,1008.84
2019-02-07T02:53:34.087Z,1008.88
2019-02-07T02:54:34.074Z,1008.81
2019-02-07T02:55:34.047Z,1008.74
2019-02-07T02:56:34.018Z,1008.73
2019-02-07T02:57:34.008Z,1008.75
2019-02-07T02:58:34.005Z,1008.76
2019-02-07T02:59:34.028Z,1008.75
2019-02-07T03:00:33.979Z,1008.75
2019-02-07T03:01:33.970Z,1008.71
2019-02-07T03:02:33.970Z,1008.67
2019-02-07T03:03:33.992Z,1008.68
2019-02-07T03:04:33.980Z,1008.74
2019-02-07T03:05:33.929Z,1008.65
2019-02-07T03:06:33.921Z,1008.62
2019-02-07T03:07:33.906Z,1008.60
2019-02-07T03:08:33.920Z,1008.55
2019-02-07T03:09:34.628Z,1008.54
2019-02-07T03:10:33.907Z,1008.53
2019-02-07T03:11:33.865Z,1008.53
2019-02-07T03:12:33.853Z,1008.48
2019-02-07T03:13:33.844Z,1008.44
2019-02-07T03:14:33.834Z,1008.51
2019-02-07T03:15:33.843Z,1008.41
2019-02-07T03:16:33.809Z,1008.37
2019-02-07T03:17:33.821Z,1008.43
2019-02-07T03:18:33.792Z,1008.45
2019-02-07T03:19:33.780Z,1008.34
2019-02-07T03:20:33.789Z,1008.40
2019-02-07T03:21:33.748Z,1008.36
2019-02-07T03:22:41.321Z,1008.39
2019-02-07T03:23:33.736Z,1008.33
2019-02-07T03:24:33.718Z,1008.35
2019-02-07T03:25:41.361Z,1008.33
2019-02-07T03:26:33.730Z,1008.34
2019-02-07T03:27:41.239Z,1008.31
2019-02-07T03:28:33.717Z,1008.22
2019-02-07T03:29:33.674Z,1008.26
2019-02-07T03:30:41.244Z,1008.17
2019-02-07T03:31:33.657Z,1008.15
2019-02-07T03:32:33.644Z,1008.18
2019-02-07T03:33:33.624Z,1008.10
2019-02-07T03:34:33.614Z,1008.03
2019-02-07T03:35:33.601Z,1008.11
2019-02-07T03:36:33.651Z,1008.01
2019-02-07T03:37:33.616Z,1008.03
2019-02-07T03:38:41.116Z,1008.04
2019-02-07T03:39:33.582Z,1007.94
2019-02-07T03:40:41.095Z,1007.98
2019-02-07T03:41:33.604Z,1007.94
2019-02-07T03:42:41.107Z,1007.94
2019-02-07T03:43:33.547Z,1007.90
2019-02-07T03:44:41.084Z,1007.85
2019-02-07T03:45:33.510Z,1007.85
2019-02-07T03:46:33.521Z,1007.85
2019-02-07T03:47:41.067Z,1007.85
2019-02-07T03:48:33.474Z,1007.82
2019-02-07T03:49:41.024Z,1007.84
2019-02-07T03:50:33.614Z,1007.79
2019-02-07T03:51:40.999Z,1007.74
2019-02-07T03:52:33.450Z,1007.75
2019-02-07T03:53:33.419Z,1007.72
2019-02-07T03:54:33.421Z,1007.66
2019-02-07T03:55:33.394Z,1007.61
2019-02-07T03:56:40.945Z,1007.58
2019-02-07T03:57:33.417Z,1007.53
2019-02-07T03:58:33.359Z,1007.51
2019-02-07T03:59:40.922Z,1007.53
2019-02-07T04:00:33.361Z,1007.50
2019-02-07T04:01:33.358Z,1007.51
2019-02-07T04:02:33.402Z,1007.46
2019-02-07T04:03:33.333Z,1007.51
2019-02-07T04:04:33.292Z,1007.53
2019-02-07T04:05:33.324Z,1007.56
2019-02-07T04:06:33.327Z,1007.53
2019-02-07T04:07:33.260Z,1007.57
2019-02-07T04:08:33.249Z,1007.47
2019-02-07T04:09:33.260Z,1007.44
2019-02-07T04:10:43.174Z,1007.42
2019-02-07T04:11:33.284Z,1007.36
2019-02-07T04:12:33.212Z,1007.36
2019-02-07T04:13:40.744Z,1007.36
2019-02-07T04:14:33.200Z,1007.35
2019-02-07T04:15:33.179Z,1007.39
2019-02-07T04:16:33.212Z,1007.34
2019-02-07T04:17:33.204Z,1007.29
2019-02-07T04:18:40.697Z,1007.29
2019-02-07T04:19:33.148Z,1007.21
2019-02-07T04:20:40.700Z,1007.25
2019-02-07T04:21:33.170Z,1007.24
2019-02-07T04:22:33.105Z,1007.28
2019-02-07T04:23:40.652Z,1007.23
2019-02-07T04:24:33.096Z,1007.31
2019-02-07T04:25:40.614Z,1007.27
2019-02-07T04:26:33.088Z,1007.32
2019-02-07T04:27:33.087Z,1007.30
2019-02-07T04:28:40.629Z,1007.35
2019-02-07T04:29:33.058Z,1007.32
2019-02-07T04:30:33.039Z,1007.34
2019-02-07T04:31:33.093Z,1007.37
2019-02-07T04:32:33.016Z,1007.23
2019-02-07T04:33:44.367Z,1007.25
2019-02-07T04:34:33.034Z,1007.19
2019-02-07T04:35:33.169Z,1007.17
2019-02-07T04:36:33.022Z,1007.21
2019-02-07T04:37:33.029Z,1007.19
2019-02-07T04:38:32.959Z,1007.16
2019-02-07T04:39:32.942Z,1007.17
2019-02-07T04:40:32.933Z,1007.08
2019-02-07T04:41:32.927Z,1007.10
2019-02-07T04:42:33.858Z,1007.05
2019-02-07T04:43:32.899Z,1007.02
2019-02-07T04:44:32.904Z,1006.99
2019-02-07T04:45:32.997Z,1006.96
2019-02-07T04:46:32.864Z,1006.91
2019-02-07T04:47:32.872Z,1006.90
2019-02-07T04:48:32.875Z,1006.94
2019-02-07T04:49:32.896Z,1006.93
2019-02-07T04:50:32.829Z,1006.90
2019-02-07T04:51:32.809Z,1006.91
2019-02-07T04:52:32.837Z,1006.84
2019-02-07T04:53:32.791Z,1006.82
2019-02-07T04:54:32.774Z,1006.78
2019-02-07T04:55:32.764Z,1006.85
2019-02-07T04:56:32.786Z,1006.81
2019-02-07T04:57:32.783Z,1006.76
2019-02-07T04:58:32.744Z,1006.79
2019-02-07T04:59:32.730Z,1006.75
2019-02-07T05:00:32.732Z,1006.76
2019-02-07T05:01:32.712Z,1006.72
2019-02-07T05:02:32.713Z,1006.70
2019-02-07T05:03:32.863Z,1006.70
2019-02-07T05:04:32.688Z,1006.68
2019-02-07T05:05:32.655Z,1006.61
2019-02-07T05:06:32.646Z,1006.59
2019-02-07T05:07:32.636Z,1006.60
2019-02-07T05:08:32.662Z,1006.64
2019-02-07T05:09:32.620Z,1006.55
2019-02-07T05:10:32.708Z,1006.56
2019-02-07T05:11:32.594Z,1006.55
2019-02-07T05:12:32.593Z,1006.45
2019-02-07T05:13:32.601Z,1006.42
2019-02-07T05:14:32.584Z,1006.43
2019-02-07T05:15:32.550Z,1006.42
2019-02-07T05:16:40.147Z,1006.33
2019-02-07T05:17:33.545Z,1006.43
2019-02-07T05:18:32.524Z,1006.41
2019-02-07T05:19:32.543Z,1006.40
2019-02-07T05:20:32.524Z,1006.35
2019-02-07T05:21:32.484Z,1006.34
2019-02-07T05:22:32.479Z,1006.28
2019-02-07T05:23:32.470Z,1006.27
2019-02-07T05:24:32.487Z,1006.20
2019-02-07T05:25:32.437Z,1006.27
2019-02-07T05:26:32.442Z,1006.16
2019-02-07T05:27:35.008Z,1006.13
2019-02-07T05:28:32.403Z,1006.16
2019-02-07T05:29:32.417Z,1006.17
2019-02-07T05:30:32.397Z,1006.13
2019-02-07T05:31:32.372Z,1006.16
2019-02-07T05:32:32.477Z,1006.17
2019-02-07T05:33:32.356Z,1006.08
2019-02-07T05:34:32.356Z,1006.10
2019-02-07T05:35:32.357Z,1006.11
2019-02-07T05:36:42.163Z,1006.08
2019-02-07T05:37:32.318Z,1006.08
2019-02-07T05:38:39.896Z,1005.98
2019-02-07T05:39:32.323Z,1006.00
2019-02-07T05:40:39.882Z,1005.95
2019-02-07T05:41:32.311Z,1005.97
2019-02-07T05:42:32.312Z,1005.96
2019-02-07T05:43:32.246Z,1005.95
2019-02-07T05:44:32.234Z,1005.87
2019-02-07T05:45:39.845Z,1005.88
2019-02-07T05:46:32.243Z,1005.88
2019-02-07T05:47:32.221Z,1005.90
2019-02-07T05:48:32.196Z,1005.88
2019-02-07T05:49:32.221Z,1005.86
2019-02-07T05:50:32.230Z,1005.86
2019-02-07T05:51:32.172Z,1005.75
2019-02-07T05:52:32.191Z,1005.74
2019-02-07T05:53:32.160Z,1005.67
2019-02-07T05:54:32.152Z,1005.63
2019-02-07T05:55:32.147Z,1005.59
2019-02-07T05:56:32.140Z,1005.57
2019-02-07T05:57:32.102Z,1005.52
2019-02-07T05:58:32.117Z,1005.55
2019-02-07T05:59:32.111Z,1005.60
2019-02-07T06:00:32.107Z,1005.51
2019-02-07T06:01:32.086Z,1005.55
2019-02-07T06:02:32.136Z,1005.51
2019-02-07T06:03:32.089Z,1005.49
2019-02-07T06:04:32.099Z,1005.54
2019-02-07T06:05:32.018Z,1005.48
2019-02-07T06:06:32.308Z,1005.43
2019-02-07T06:07:32.016Z,1005.46
2019-02-07T06:08:32.010Z,1005.39
2019-02-07T06:09:31.984Z,1005.36
2019-02-07T06:10:31.972Z,1005.34
2019-02-07T06:11:32.043Z,1005.38
2019-02-07T06:12:31.948Z,1005.39
2019-02-07T06:13:31.937Z,1005.41
2019-02-07T06:14:31.926Z,1005.40
2019-02-07T06:15:31.953Z,1005.42
2019-02-07T06:16:31.928Z,1005.38
2019-02-07T06:17:31.895Z,1005.40
2019-02-07T06:18:31.887Z,1005.31
2019-02-07T06:19:31.898Z,1005.33
2019-02-07T06:20:31.931Z,1005.31
2019-02-07T06:21:31.877Z,1005.28
2019-02-07T06:22:31.842Z,1005.34
2019-02-07T06:23:31.831Z,1005.30
2019-02-07T06:24:31.847Z,1005.34
2019-02-07T06:25:31.811Z,1005.34
2019-02-07T06:26:31.805Z,1005.32
2019-02-07T06:27:31.820Z,1005.32
2019-02-07T06:28:31.806Z,1005.34
2019-02-07T06:29:31.769Z,1005.31
2019-02-07T06:30:31.761Z,1005.30
2019-02-07T06:31:31.752Z,1005.23
2019-02-07T06:32:31.806Z,1005.37
2019-02-07T06:33:31.737Z,1005.27
2019-02-07T06:34:31.718Z,1005.32
2019-02-07T06:35:31.708Z,1005.30
2019-02-07T06:36:31.705Z,1005.28
2019-02-07T06:37:31.711Z,1005.31
2019-02-07T06:38:31.697Z,1005.33
2019-02-07T06:39:31.707Z,1005.25
2019-02-07T06:40:31.657Z,1005.24
2019-02-07T06:41:31.647Z,1005.17
2019-02-07T06:42:31.658Z,1005.23
2019-02-07T06:43:31.632Z,1005.27
2019-02-07T06:44:31.623Z,1005.25
2019-02-07T06:45:31.606Z,1005.24
2019-02-07T06:46:31.604Z,1005.26
2019-02-07T06:47:31.621Z,1005.29
2019-02-07T06:48:31.585Z,1005.27
2019-02-07T06:49:31.564Z,1005.28
2019-02-07T06:50:31.554Z,1005.29
2019-02-07T06:51:31.545Z,1005.26
2019-02-07T06:52:31.548Z,1005.28
2019-02-07T06:53:31.540Z,1005.31
2019-02-07T06:54:31.507Z,1005.29
2019-02-07T06:55:31.497Z,1005.27
2019-02-07T06:56:31.488Z,1005.28
2019-02-07T06:57:31.498Z,1005.31
2019-02-07T06:58:31.488Z,1005.25
2019-02-07T06:59:31.458Z,1005.30
2019-02-07T07:00:31.445Z,1005.24
2019-02-07T07:01:31.446Z,1005.24
2019-02-07T07:02:31.428Z,1005.25
2019-02-07T07:03:31.415Z,1005.28
2019-02-07T07:04:31.424Z,1005.23
2019-02-07T07:05:38.955Z,1005.19
2019-02-07T07:06:31.407Z,1005.19
2019-02-07T07:07:31.387Z,1005.22
2019-02-07T07:08:31.393Z,1005.16
2019-02-07T07:09:31.415Z,1005.20
2019-02-07T07:10:31.386Z,1005.22
2019-02-07T07:11:31.373Z,1005.20
2019-02-07T07:12:31.344Z,1005.22
2019-02-07T07:13:38.898Z,1005.24
2019-02-07T07:14:31.332Z,1005.16
2019-02-07T07:15:40.304Z,1005.22
2019-02-07T07:16:31.300Z,1005.20
2019-02-07T07:17:31.283Z,1005.21
2019-02-07T07:18:31.296Z,1005.23
2019-02-07T07:19:31.292Z,1005.19
2019-02-07T07:20:31.253Z,1005.17
2019-02-07T07:21:31.245Z,1005.21
2019-02-07T07:22:31.273Z,1005.21
2019-02-07T07:23:31.255Z,1005.17
2019-02-07T07:24:31.319Z,1005.22
2019-02-07T07:25:31.201Z,1005.23
2019-02-07T07:26:31.183Z,1005.19
2019-02-07T07:27:31.167Z,1005.27
2019-02-07T07:28:31.159Z,1005.21
2019-02-07T07:29:31.170Z,1005.22
2019-02-07T07:30:31.137Z,1005.27
2019-02-07T07:31:31.140Z,1005.25
2019-02-07T07:32:31.119Z,1005.22
2019-02-07T07:33:38.651Z,1005.24
2019-02-07T07:34:31.112Z,1005.22
2019-02-07T07:35:31.117Z,1005.20
2019-02-07T07:36:38.666Z,1005.14
2019-02-07T07:37:31.071Z,1005.19
2019-02-07T07:38:31.074Z,1005.15
2019-02-07T07:39:31.089Z,1005.08
2019-02-07T07:40:31.078Z,1005.08
2019-02-07T07:41:31.040Z,1005.07
2019-02-07T07:42:38.600Z,1005.18
2019-02-07T07:43:31.039Z,1005.20
2019-02-07T07:44:30.997Z,1005.20
2019-02-07T07:45:31.040Z,1005.19
2019-02-07T07:46:30.998Z,1005.24
2019-02-07T07:47:36.012Z,1005.25
2019-02-07T07:48:31.984Z,1005.29
2019-02-07T07:49:30.980Z,1005.27
2019-02-07T07:50:30.950Z,1005.26
2019-02-07T07:51:30.920Z,1005.25
2019-02-07T07:52:30.929Z,1005.17
2019-02-07T07:53:30.912Z,1005.13
2019-02-07T07:54:30.914Z,1005.16
2019-02-07T07:55:30.927Z,1005.24
2019-02-07T07:56:30.903Z,1005.30
2019-02-07T07:57:30.854Z,1005.33
2019-02-07T07:58:30.870Z,1005.37
2019-02-07T07:59:30.837Z,1005.33
2019-02-07T08:00:30.895Z,1005.31
2019-02-07T08:01:30.850Z,1005.33
2019-02-07T08:02:30.843Z,1005.32
2019-02-07T08:03:30.803Z,1005.29
2019-02-07T08:04:30.795Z,1005.33
2019-02-07T08:05:38.342Z,1005.39
2019-02-07T08:06:30.790Z,1005.38
2019-02-07T08:07:30.778Z,1005.36
2019-02-07T08:08:30.739Z,1005.40
2019-02-07T08:09:30.743Z,1005.40
2019-02-07T08:10:30.759Z,1005.42
2019-02-07T08:11:30.755Z,1005.39
2019-02-07T08:12:30.710Z,1005.43
2019-02-07T08:13:30.686Z,1005.47
2019-02-07T08:14:30.694Z,1005.42
2019-02-07T08:15:30.666Z,1005.46
2019-02-07T08:16:39.265Z,1005.42
2019-02-07T08:17:30.663Z,1005.42
2019-02-07T08:18:30.668Z,1005.45
2019-02-07T08:19:30.633Z,1005.50
2019-02-07T08:20:30.646Z,1005.47
2019-02-07T08:21:30.604Z,1005.49
2019-02-07T08:22:30.626Z,1005.50
2019-02-07T08:23:30.580Z,1005.54
2019-02-07T08:24:30.612Z,1005.49
2019-02-07T08:25:30.573Z,1005.56
2019-02-07T08:26:30.558Z,1005.50
2019-02-07T08:27:30.590Z,1005.54
2019-02-07T08:28:30.546Z,1005.60
2019-02-07T08:29:30.540Z,1005.50
2019-02-07T08:30:36.341Z,1005.53
2019-02-07T08:31:31.511Z,1005.49
2019-02-07T08:32:30.510Z,1005.49
2019-02-07T08:33:30.507Z,1005.66
2019-02-07T08:34:30.466Z,1005.61
2019-02-07T08:35:30.461Z,1005.60
2019-02-07T08:36:30.454Z,1005.73
2019-02-07T08:37:30.508Z,1005.66
2019-02-07T08:38:30.467Z,1005.70
2019-02-07T08:39:30.426Z,1005.76
2019-02-07T08:40:37.958Z,1005.75
2019-02-07T08:41:30.390Z,1005.80
2019-02-07T08:42:30.417Z,1005.77
2019-02-07T08:43:30.406Z,1005.80
2019-02-07T08:44:30.368Z,1005.83
2019-02-07T08:45:30.391Z,1005.81
2019-02-07T08:46:30.370Z,1005.77
2019-02-07T08:47:30.369Z,1005.83
2019-02-07T08:48:30.373Z,1005.87
2019-02-07T08:49:30.300Z,1005.89
2019-02-07T08:50:30.345Z,1005.95
2019-02-07T08:51:30.286Z,1005.95
2019-02-07T08:52:30.459Z,1005.98
2019-02-07T08:53:31.266Z,1006.00
2019-02-07T08:54:30.252Z,1006.06
2019-02-07T08:55:30.234Z,1006.09
2019-02-07T08:56:30.227Z,1006.05
2019-02-07T08:57:30.222Z,1005.98
2019-02-07T08:58:30.207Z,1005.96
2019-02-07T08:59:30.208Z,1005.98
2019-02-07T09:00:30.199Z,1005.98
2019-02-07T09:01:30.164Z,1006.04
2019-02-07T09:02:30.167Z,1006.04
2019-02-07T09:03:30.155Z,1006.00
2019-02-07T09:04:31.746Z,1005.95
2019-02-07T09:05:30.138Z,1005.99
2019-02-07T09:06:30.117Z,1006.00
2019-02-07T09:07:32.121Z,1005.99
2019-02-07T09:08:30.119Z,1006.05
2019-02-07T09:09:30.178Z,1006.08
2019-02-07T09:10:30.093Z,1006.09
2019-02-07T09:11:30.062Z,1006.05
2019-02-07T09:12:30.046Z,1006.11
2019-02-07T09:13:30.039Z,1006.11
2019-02-07T09:14:30.030Z,1006.14
2019-02-07T09:15:30.038Z,1006.14
2019-02-07T09:16:30.007Z,1006.19
2019-02-07T09:17:29.994Z,1006.13
2019-02-07T09:18:29.984Z,1006.17
2019-02-07T09:19:29.976Z,1006.21
2019-02-07T09:20:29.980Z,1006.26
2019-02-07T09:21:29.963Z,1006.30
2019-02-07T09:22:29.935Z,1006.23
2019-02-07T09:23:29.922Z,1006.31
2019-02-07T09:24:29.913Z,1006.19
2019-02-07T09:25:34.344Z,1006.18
2019-02-07T09:26:29.960Z,1006.15
2019-02-07T09:27:29.877Z,1006.10
2019-02-07T09:28:29.870Z,1006.11
2019-02-07T09:29:29.866Z,1006.14
2019-02-07T09:30:37.405Z,1006.20
2019-02-07T09:31:29.886Z,1006.22
2019-02-07T09:32:29.864Z,1006.21
2019-02-07T09:33:29.820Z,1006.24
2019-02-07T09:34:29.817Z,1006.23
2019-02-07T09:35:29.799Z,1006.19
2019-02-07T09:36:37.406Z,1006.33
2019-02-07T09:37:29.825Z,1006.33
2019-02-07T09:38:29.765Z,1006.24
2019-02-07T09:39:29.755Z,1006.32
2019-02-07T09:40:29.779Z,1006.30
2019-02-07T09:41:29.719Z,1006.29
2019-02-07T09:42:29.793Z,1006.34
2019-02-07T09:43:29.713Z,1006.27
2019-02-07T09:44:29.709Z,1006.35
2019-02-07T09:45:29.731Z,1006.39
2019-02-07T09:46:29.685Z,1006.38
2019-02-07T09:47:29.704Z,1006.34
2019-02-07T09:48:29.659Z,1006.37
2019-02-07T09:49:29.648Z,1006.44
2019-02-07T09:50:29.625Z,1006.34
2019-02-07T09:51:29.649Z,1006.42
2019-02-07T09:52:29.661Z,1006.37
2019-02-07T09:53:29.644Z,1006.35
2019-02-07T09:54:29.616Z,1006.39
2019-02-07T09:55:29.604Z,1006.40
2019-02-07T09:56:29.557Z,1006.45
2019-02-07T09:57:29.555Z,1006.44
2019-02-07T09:58:29.538Z,1006.40
2019-02-07T09:59:29.543Z,1006.37
2019-02-07T10:00:29.534Z,1006.36
2019-02-07T10:01:29.500Z,1006.34
2019-02-07T10:02:29.538Z,1006.34
2019-02-07T10:03:29.504Z,1006.32
2019-02-07T10:04:29.480Z,1006.34
2019-02-07T10:05:29.529Z,1006.44
2019-02-07T10:06:29.495Z,1006.35
2019-02-07T10:07:29.478Z,1006.47
2019-02-07T10:08:29.451Z,1006.48
2019-02-07T10:09:29.431Z,1006.41
2019-02-07T10:10:29.517Z,1006.41
2019-02-07T10:12:39.134Z,1006.44
2019-02-07T10:13:39.168Z,1006.40
2019-02-07T10:14:39.125Z,1006.37
2019-02-07T10:15:39.124Z,1006.40
2019-02-07T10:16:39.097Z,1006.44
2019-02-07T10:17:39.086Z,1006.42
2019-02-07T10:18:39.111Z,1006.43
2019-02-07T10:19:39.095Z,1006.41
2019-02-07T10:20:39.098Z,1006.49
2019-02-07T10:21:39.112Z,1006.39
2019-02-07T10:22:39.250Z,1006.50
2019-02-07T10:23:39.032Z,1006.47
2019-02-07T10:24:39.018Z,1006.57
2019-02-07T10:25:39.048Z,1006.49
2019-02-07T10:26:38.974Z,1006.54
2019-02-07T10:27:39.023Z,1006.43
2019-02-07T10:28:38.966Z,1006.42
2019-02-07T10:29:38.984Z,1006.43
2019-02-07T10:30:38.947Z,1006.50
2019-02-07T10:31:39.010Z,1006.49
2019-02-07T10:32:38.918Z,1006.47
2019-02-07T10:33:38.899Z,1006.52
2019-02-07T10:34:38.908Z,1006.49
2019-02-07T10:35:38.905Z,1006.47
2019-02-07T10:36:38.993Z,1006.45
2019-02-07T10:37:46.405Z,1006.43
2019-02-07T10:38:38.870Z,1006.33
2019-02-07T10:39:38.868Z,1006.31
2019-02-07T10:40:38.840Z,1006.35
2019-02-07T10:41:38.870Z,1006.37
2019-02-07T10:42:38.827Z,1006.31
2019-02-07T10:43:38.834Z,1006.38
2019-02-07T10:44:38.816Z,1006.43
2019-02-07T10:45:38.788Z,1006.50
2019-02-07T10:46:38.806Z,1006.42
2019-02-07T10:47:38.776Z,1006.37
2019-02-07T10:48:44.564Z,1006.48
2019-02-07T10:49:39.767Z,1006.49
2019-02-07T10:50:38.786Z,1006.49
2019-02-07T10:51:38.854Z,1006.46
2019-02-07T10:52:40.187Z,1006.46
2019-02-07T10:53:38.687Z,1006.48
2019-02-07T10:54:38.675Z,1006.52
2019-02-07T10:55:38.682Z,1006.51
2019-02-07T10:56:38.652Z,1006.51
2019-02-07T10:57:38.693Z,1006.46
2019-02-07T10:58:38.632Z,1006.41
2019-02-07T10:59:38.620Z,1006.38
2019-02-07T11:00:38.626Z,1006.35
2019-02-07T11:01:38.598Z,1006.34
2019-02-07T11:02:38.615Z,1006.42
2019-02-07T11:03:38.593Z,1006.37
2019-02-07T11:04:38.567Z,1006.46
2019-02-07T11:05:38.582Z,1006.44
2019-02-07T11:06:38.562Z,1006.40
2019-02-07T11:07:38.651Z,1006.40
2019-02-07T11:08:38.526Z,1006.33
2019-02-07T11:09:38.526Z,1006.39
2019-02-07T11:10:38.507Z,1006.35
2019-02-07T11:11:38.504Z,1006.35
2019-02-07T11:12:38.525Z,1006.29
2019-02-07T11:13:38.487Z,1006.36
2019-02-07T11:14:38.466Z,1006.40
2019-02-07T11:15:38.452Z,1006.39
2019-02-07T11:16:38.456Z,1006.36
2019-02-07T11:17:38.445Z,1006.35
2019-02-07T11:18:38.462Z,1006.33
2019-02-07T11:19:38.438Z,1006.33
2019-02-07T11:20:38.448Z,1006.25
2019-02-07T11:21:38.407Z,1006.24
2019-02-07T11:22:38.380Z,1006.33
2019-02-07T11:23:38.419Z,1006.27
2019-02-07T11:24:38.356Z,1006.29
2019-02-07T11:25:38.349Z,1006.21
2019-02-07T11:26:38.338Z,1006.31
2019-02-07T11:27:38.324Z,1006.27
2019-02-07T11:28:38.355Z,1006.26
2019-02-07T11:29:38.304Z,1006.20
2019-02-07T11:30:38.324Z,1006.14
2019-02-07T11:31:38.283Z,1006.24
2019-02-07T11:32:38.269Z,1006.16
2019-02-07T11:33:38.287Z,1006.22
2019-02-07T11:34:38.268Z,1006.24
2019-02-07T11:35:38.240Z,1006.17
2019-02-07T11:36:38.229Z,1006.19
2019-02-07T11:37:38.218Z,1006.23
2019-02-07T11:38:38.215Z,1006.20
2019-02-07T11:39:45.801Z,1006.20
2019-02-07T11:40:38.198Z,1006.15
2019-02-07T11:41:38.194Z,1006.19
2019-02-07T11:42:45.782Z,1006.26
2019-02-07T11:43:38.177Z,1006.18
2019-02-07T11:44:45.780Z,1006.23
2019-02-07T11:45:38.181Z,1006.18
2019-02-07T11:46:38.323Z,1006.25
2019-02-07T11:47:38.140Z,1006.26
2019-02-07T11:48:38.117Z,1006.19
2019-02-07T11:49:38.991Z,1006.16
2019-02-07T11:50:45.663Z,1006.18
2019-02-07T11:51:38.150Z,1006.18
2019-02-07T11:52:38.072Z,1006.26
2019-02-07T11:53:38.084Z,1006.19
2019-02-07T11:54:38.214Z,1006.21
2019-02-07T11:55:38.038Z,1006.25
2019-02-07T11:56:45.599Z,1006.24
2019-02-07T11:57:38.078Z,1006.24
2019-02-07T11:58:45.579Z,1006.27
2019-02-07T11:59:38.035Z,1006.19
2019-02-07T12:00:37.997Z,1006.14
2019-02-07T12:01:45.565Z,1006.12
2019-02-07T12:02:37.969Z,1006.16
2019-02-07T12:03:38.022Z,1006.16
2019-02-07T12:04:45.560Z,1006.17
2019-02-07T12:05:37.943Z,1006.12
2019-02-07T12:06:45.451Z,1006.15
2019-02-07T12:07:37.953Z,1006.11
2019-02-07T12:08:45.438Z,1006.13